createdAt,value
2017-10-24T00:00:00.471Z,13.37
2017-10-24T00:02:27.945Z,12.73
2017-10-24T00:04:55.407Z,12.67
2017-10-24T00:07:22.883Z,16.57
2017-10-24T00:09:51.111Z,14.13
2017-10-24T00:12:18.594Z,14.30
2017-10-24T00:14:46.832Z,16.40
2017-10-24T00:17:14.332Z,14.37
2017-10-24T00:19:41.795Z,12.07
2017-10-24T00:22:09.270Z,17.10
2017-10-24T00:24:36.740Z,19.60
2017-10-24T00:27:04.982Z,12.80
2017-10-24T00:29:33.214Z,13.73
2017-10-24T00:32:00.692Z,13.47
2017-10-24T00:34:29.229Z,11.83
2017-10-24T00:36:57.466Z,10.87
2017-10-24T00:39:24.930Z,16.47
2017-10-24T00:41:52.416Z,14.80
2017-10-24T00:44:20.648Z,17.80
2017-10-24T00:46:48.114Z,11.50
2017-10-24T00:49:15.587Z,16.27
2017-10-24T00:51:43.057Z,13.03
2017-10-24T00:54:10.523Z,12.13
2017-10-24T00:56:38.788Z,10.73
2017-10-24T00:59:06.251Z,13.53
2017-10-24T01:01:33.720Z,11.97
2017-10-24T01:04:01.959Z,12.17
2017-10-24T01:06:29.416Z,12.67
2017-10-24T01:08:56.887Z,10.10
2017-10-24T01:11:24.357Z,12.70
2017-10-24T01:13:51.830Z,10.40
2017-10-24T01:16:20.073Z,10.83
2017-10-24T01:18:47.539Z,8.60
2017-10-24T01:21:15.004Z,16.27
2017-10-24T01:23:42.474Z,13.97
2017-10-24T01:26:10.712Z,13.27
2017-10-24T01:28:38.188Z,13.23
2017-10-24T01:31:05.648Z,10.30
2017-10-24T01:33:33.123Z,13.00
2017-10-24T01:36:00.591Z,13.63
2017-10-24T01:38:28.828Z,16.10
2017-10-24T01:40:56.308Z,12.10
2017-10-24T01:43:23.792Z,23.87
2017-10-24T01:45:52.011Z,11.00
2017-10-24T01:48:19.507Z,12.70
2017-10-24T01:50:46.983Z,12.47
2017-10-24T01:53:15.231Z,11.03
2017-10-24T01:55:42.746Z,15.80
2017-10-24T01:58:10.200Z,10.50
2017-10-24T02:00:37.674Z,11.90
2017-10-24T02:03:05.130Z,15.40
2017-10-24T02:05:32.607Z,13.37
2017-10-24T02:08:00.080Z,13.93
2017-10-24T02:10:27.551Z,14.83
2017-10-24T02:12:55.362Z,15.50
2017-10-24T02:15:22.839Z,12.97
2017-10-24T02:17:50.303Z,22.50
2017-10-24T02:20:17.780Z,19.73
2017-10-24T02:22:45.268Z,25.63
2017-10-24T02:25:12.731Z,18.77
2017-10-24T02:27:40.972Z,24.03
2017-10-24T02:30:08.481Z,16.70
2017-10-24T02:32:35.946Z,18.87
2017-10-24T02:35:03.413Z,21.80
2017-10-24T02:37:30.955Z,21.37
2017-10-24T02:39:58.421Z,23.67
2017-10-24T02:42:25.906Z,28.63
2017-10-24T02:44:53.369Z,26.13
2017-10-24T02:47:20.855Z,25.50
2017-10-24T02:49:48.325Z,23.83
2017-10-24T02:52:16.629Z,23.13
2017-10-24T02:54:44.091Z,27.57
2017-10-24T02:57:11.579Z,32.97
2017-10-24T02:59:39.053Z,32.10
2017-10-24T03:02:06.672Z,30.67
2017-10-24T03:04:34.149Z,32.97
2017-10-24T03:07:01.682Z,33.27
2017-10-24T03:09:29.150Z,34.97
2017-10-24T03:11:56.646Z,30.10
2017-10-24T03:14:24.114Z,34.63
2017-10-24T03:16:51.632Z,40.60
2017-10-24T03:19:19.098Z,46.30
2017-10-24T03:21:46.593Z,38.63
2017-10-24T03:24:14.068Z,40.40
2017-10-24T03:26:42.317Z,39.70
2017-10-24T03:29:09.783Z,44.63
2017-10-24T03:31:37.265Z,42.33
2017-10-24T03:34:05.508Z,39.30
2017-10-24T03:36:32.989Z,45.10
2017-10-24T03:39:00.451Z,44.47
2017-10-24T03:41:28.696Z,43.90
2017-10-24T03:43:56.181Z,42.80
2017-10-24T03:46:24.431Z,47.13
2017-10-24T03:48:51.911Z,40.80
2017-10-24T03:51:19.375Z,40.00
2017-10-24T03:53:47.616Z,43.40
2017-10-24T03:56:15.356Z,48.33
2017-10-24T03:58:42.860Z,43.67
2017-10-24T04:01:10.346Z,47.23
2017-10-24T04:03:38.588Z,45.87
2017-10-24T04:06:06.059Z,41.93
2017-10-24T04:08:33.571Z,43.60
2017-10-24T04:11:01.045Z,43.90
2017-10-24T04:13:28.530Z,48.10
2017-10-24T04:15:56.001Z,42.83
2017-10-24T04:18:23.475Z,40.67
2017-10-24T04:20:51.713Z,48.97
2017-10-24T04:23:19.219Z,44.10
2017-10-24T04:25:47.448Z,46.97
2017-10-24T04:28:14.925Z,42.73
2017-10-24T04:30:42.409Z,39.10
2017-10-24T04:33:10.659Z,44.43
2017-10-24T04:35:38.144Z,42.03
2017-10-24T04:38:06.404Z,49.57
2017-10-24T04:40:34.648Z,40.13
2017-10-24T04:43:02.118Z,46.87
2017-10-24T04:45:29.604Z,42.77
2017-10-24T04:47:57.832Z,37.60
2017-10-24T04:50:25.315Z,44.20
2017-10-24T04:52:52.850Z,41.40
2017-10-24T04:55:20.323Z,36.90
2017-10-24T04:57:47.800Z,45.23
2017-10-24T05:00:15.274Z,36.00
2017-10-24T05:02:43.518Z,39.23
2017-10-24T05:05:10.987Z,37.47
2017-10-24T05:07:38.465Z,36.13
2017-10-24T05:10:06.731Z,36.70
2017-10-24T05:12:34.251Z,34.50
2017-10-24T05:15:01.849Z,39.33
2017-10-24T05:17:29.310Z,36.97
2017-10-24T05:19:56.784Z,37.57
2017-10-24T05:22:25.016Z,35.50
2017-10-24T05:24:52.500Z,34.57
2017-10-24T05:27:19.967Z,47.10
2017-10-24T05:29:47.452Z,34.33
2017-10-24T05:32:14.925Z,36.50
2017-10-24T05:34:42.401Z,35.63
2017-10-24T05:37:09.886Z,36.23
2017-10-24T05:39:37.362Z,32.73
2017-10-24T05:42:05.609Z,35.00
2017-10-24T05:44:33.082Z,36.07
2017-10-24T05:47:00.570Z,31.30
2017-10-24T05:49:28.798Z,38.00
2017-10-24T05:51:56.287Z,35.67
2017-10-24T05:54:24.536Z,37.27
2017-10-24T05:56:52.043Z,31.50
2017-10-24T05:59:19.532Z,32.40
2017-10-24T06:01:47.046Z,36.30
2017-10-24T06:04:15.295Z,30.77
2017-10-24T06:06:42.777Z,33.70
2017-10-24T06:09:11.018Z,35.03
2017-10-24T06:11:38.493Z,35.30
2017-10-24T06:14:05.965Z,34.53
2017-10-24T06:16:33.439Z,32.97
2017-10-24T06:19:01.678Z,28.07
2017-10-24T06:21:29.160Z,31.50
2017-10-24T06:23:56.623Z,31.07
2017-10-24T06:26:24.864Z,29.70
2017-10-24T06:28:52.362Z,32.97
2017-10-24T06:31:20.584Z,33.57
2017-10-24T06:33:48.069Z,28.67
2017-10-24T06:36:15.548Z,30.77
2017-10-24T06:38:43.028Z,31.57
2017-10-24T06:41:10.508Z,35.30
2017-10-24T06:43:37.990Z,35.90
2017-10-24T06:46:05.456Z,36.93
2017-10-24T06:48:32.932Z,36.87
2017-10-24T06:51:00.408Z,32.97
2017-10-24T06:53:28.657Z,34.00
2017-10-24T06:55:56.122Z,37.77
2017-10-24T06:58:24.385Z,34.67
2017-10-24T07:00:52.464Z,37.87
2017-10-24T07:03:19.948Z,34.90
2017-10-24T07:05:48.192Z,33.07
2017-10-24T07:08:15.659Z,35.07
2017-10-24T07:10:43.166Z,34.47
2017-10-24T07:13:10.674Z,34.90
2017-10-24T07:15:38.140Z,33.33
2017-10-24T07:18:05.630Z,37.67
2017-10-24T07:20:33.107Z,37.87
2017-10-24T07:23:00.602Z,39.43
2017-10-24T07:25:29.457Z,42.07
2017-10-24T07:27:56.951Z,46.20
2017-10-24T07:30:24.432Z,42.47
2017-10-24T07:32:51.932Z,39.53
2017-10-24T07:35:19.404Z,37.13
2017-10-24T07:37:48.094Z,41.03
2017-10-24T07:40:16.919Z,47.87
2017-10-24T07:42:44.400Z,45.57
2017-10-24T07:45:12.645Z,47.93
2017-10-24T07:47:40.128Z,53.27
2017-10-24T07:52:42.253Z,45.03
2017-10-24T07:55:09.724Z,51.17
2017-10-24T07:57:37.224Z,55.07
2017-10-24T08:00:05.467Z,41.97
2017-10-24T08:02:34.876Z,42.17
2017-10-24T08:05:02.368Z,30.53
2017-10-24T08:07:29.828Z,17.90
2017-10-24T08:09:58.062Z,18.63
2017-10-24T08:12:25.590Z,18.00
2017-10-24T08:14:53.069Z,18.10
2017-10-24T08:17:20.549Z,17.97
2017-10-24T08:19:48.022Z,20.90
2017-10-24T08:22:15.492Z,12.00
2017-10-24T08:24:43.752Z,9.90
2017-10-24T08:27:11.204Z,12.30
2017-10-24T08:29:38.685Z,9.80
2017-10-24T08:32:06.940Z,10.47
2017-10-24T08:34:34.440Z,11.10
2017-10-24T08:37:01.911Z,11.40
2017-10-24T08:39:29.377Z,8.50
2017-10-24T08:41:56.860Z,7.30
2017-10-24T08:44:24.348Z,8.83
2017-10-24T08:46:51.832Z,5.87
2017-10-24T08:49:19.296Z,7.87
2017-10-24T08:51:46.777Z,5.90
2017-10-24T08:54:14.235Z,5.83
2017-10-24T08:56:42.613Z,6.03
2017-10-24T08:59:10.085Z,5.70
2017-10-24T09:01:37.546Z,5.33
2017-10-24T09:04:05.029Z,6.10
2017-10-24T09:06:35.424Z,7.73
2017-10-24T09:09:14.837Z,6.20
2017-10-24T09:11:42.317Z,4.47
2017-10-24T09:14:25.446Z,4.93
2017-10-24T09:16:52.915Z,4.53
2017-10-24T09:22:33.474Z,3.70
2017-10-24T09:25:00.936Z,3.70
2017-10-24T09:27:28.400Z,4.27
2017-10-24T09:29:55.855Z,4.37
2017-10-24T09:32:38.213Z,3.60
2017-10-24T09:35:05.676Z,3.10
2017-10-24T09:37:33.154Z,3.53
2017-10-24T09:40:00.607Z,5.10
2017-10-24T09:42:28.858Z,3.70
2017-10-24T09:44:56.324Z,2.77
2017-10-24T09:47:24.956Z,3.40
2017-10-24T09:49:58.046Z,2.87
2017-10-24T09:52:25.511Z,3.50
2017-10-24T09:54:52.980Z,3.50
2017-10-24T09:57:21.212Z,3.20
2017-10-24T09:59:48.688Z,3.50
2017-10-24T10:02:16.193Z,4.53
2017-10-24T10:04:43.653Z,2.43
2017-10-24T10:07:11.121Z,3.60
2017-10-24T10:09:38.590Z,3.10
2017-10-24T10:12:09.632Z,3.50
2017-10-24T10:14:37.863Z,4.00
2017-10-24T10:17:05.332Z,3.63
2017-10-24T10:19:32.795Z,3.33
2017-10-24T10:22:00.268Z,3.33
2017-10-24T10:24:39.302Z,3.30
2017-10-24T10:27:06.861Z,4.20
2017-10-24T10:29:34.341Z,2.50
2017-10-24T10:32:02.575Z,2.50
2017-10-24T10:34:30.059Z,2.60
2017-10-24T10:36:57.535Z,2.77
2017-10-24T10:39:25.038Z,2.40
2017-10-24T10:41:52.523Z,3.27
2017-10-24T10:44:21.110Z,3.37
2017-10-24T10:46:48.578Z,3.17
2017-10-24T10:49:16.845Z,3.93
2017-10-24T10:51:44.389Z,3.53
2017-10-24T10:54:11.868Z,3.50
2017-10-24T10:56:39.333Z,3.20
2017-10-24T10:59:07.626Z,2.87
2017-10-24T11:01:35.868Z,2.80
2017-10-24T11:04:03.344Z,2.63
2017-10-24T11:06:30.821Z,2.20
2017-10-24T11:08:59.054Z,3.30
2017-10-24T11:11:26.521Z,2.50
2017-10-24T11:13:53.985Z,3.80
2017-10-24T11:16:21.439Z,3.83
2017-10-24T11:18:48.957Z,2.40
2017-10-24T11:21:16.433Z,1.53
2017-10-24T11:23:44.427Z,3.07
2017-10-24T11:26:12.671Z,1.63
2017-10-24T11:28:40.141Z,2.30
2017-10-24T11:31:07.798Z,1.77
2017-10-24T11:33:35.312Z,2.00
2017-10-24T11:36:03.551Z,2.37
2017-10-24T11:38:31.020Z,2.20
2017-10-24T11:40:58.492Z,1.97
2017-10-24T11:43:26.723Z,1.70
2017-10-24T11:45:54.197Z,1.83
2017-10-24T11:48:21.659Z,2.30
2017-10-24T11:50:49.132Z,1.60
2017-10-24T11:53:16.596Z,2.70
2017-10-24T11:55:44.068Z,2.20
2017-10-24T11:58:12.306Z,1.30
2017-10-24T12:00:39.803Z,1.60
2017-10-24T12:03:08.037Z,1.43
2017-10-24T12:05:35.500Z,1.10
2017-10-24T12:08:02.963Z,1.40
2017-10-24T12:10:30.439Z,1.50
2017-10-24T12:12:57.911Z,1.43
2017-10-24T12:15:26.155Z,1.40
2017-10-24T12:17:54.252Z,1.80
2017-10-24T12:20:21.733Z,1.20
2017-10-24T12:22:49.967Z,1.50
2017-10-24T12:25:18.525Z,1.57
2017-10-24T12:27:46.008Z,1.43
2017-10-24T12:30:13.505Z,1.87
2017-10-24T12:32:41.747Z,3.57
2017-10-24T12:35:09.202Z,1.30
2017-10-24T12:37:36.680Z,1.40
2017-10-24T12:40:04.224Z,1.30
2017-10-24T12:42:34.253Z,1.67
2017-10-24T12:45:02.504Z,1.67
2017-10-24T12:47:30.817Z,1.20
2017-10-24T12:49:58.828Z,1.67
2017-10-24T12:52:26.321Z,0.90
2017-10-24T12:54:53.985Z,2.23
2017-10-24T12:57:23.285Z,2.30
2017-10-24T12:59:53.245Z,1.50
2017-10-24T13:02:21.484Z,2.50
2017-10-24T13:04:48.951Z,1.30
2017-10-24T13:07:16.441Z,2.67
2017-10-24T13:09:44.672Z,2.93
2017-10-24T13:12:12.156Z,1.67
2017-10-24T13:14:39.621Z,2.23
2017-10-24T13:17:08.245Z,1.90
2017-10-24T13:19:35.706Z,1.77
2017-10-24T13:22:03.189Z,1.10
2017-10-24T13:24:30.651Z,1.17
2017-10-24T13:26:58.133Z,2.30
2017-10-24T13:29:26.370Z,2.00
2017-10-24T13:31:54.050Z,1.33
2017-10-24T13:34:22.352Z,0.80
2017-10-24T13:36:49.823Z,1.60
2017-10-24T13:39:18.057Z,1.60
2017-10-24T13:41:45.515Z,1.60
2017-10-24T13:44:12.978Z,1.57
2017-10-24T13:46:40.456Z,1.97
2017-10-24T13:49:07.917Z,2.57
2017-10-24T13:51:35.428Z,2.67
2017-10-24T13:54:02.879Z,1.70
2017-10-24T13:56:30.366Z,1.60
2017-10-24T13:58:57.818Z,1.97
2017-10-24T14:01:25.300Z,1.73
2017-10-24T14:03:52.778Z,4.07
2017-10-24T14:06:26.672Z,1.77
2017-10-24T14:08:59.933Z,1.87
2017-10-24T14:11:27.407Z,1.40
2017-10-24T14:13:54.872Z,1.70
2017-10-24T14:16:22.386Z,3.97
2017-10-24T14:18:49.858Z,2.00
2017-10-24T14:21:17.359Z,1.80
2017-10-24T14:23:44.829Z,2.10
2017-10-24T14:26:13.123Z,2.03
2017-10-24T14:28:40.608Z,2.90
2017-10-24T14:31:08.063Z,1.93
2017-10-24T14:33:35.527Z,2.40
2017-10-24T14:36:02.983Z,2.27
2017-10-24T14:38:30.457Z,2.70
2017-10-24T14:40:57.914Z,4.00
2017-10-24T14:43:25.393Z,3.87
2017-10-24T14:45:52.851Z,3.83
2017-10-24T14:48:20.319Z,3.83
2017-10-24T14:50:47.775Z,4.27
2017-10-24T14:53:15.249Z,4.10
2017-10-24T14:55:43.869Z,3.00
2017-10-24T14:58:11.328Z,2.67
2017-10-24T15:00:38.792Z,4.07
2017-10-24T15:03:06.263Z,4.13
2017-10-24T15:05:33.719Z,3.67
2017-10-24T15:08:01.200Z,4.17
2017-10-24T15:10:28.669Z,4.43
2017-10-24T15:12:56.139Z,4.97
2017-10-24T15:15:24.363Z,4.07
2017-10-24T15:17:51.852Z,4.53
2017-10-24T15:20:19.316Z,4.93
2017-10-24T15:22:46.783Z,6.23
2017-10-24T15:25:14.242Z,5.27
2017-10-24T15:27:41.731Z,5.10
2017-10-24T15:30:09.204Z,4.27
2017-10-24T15:32:36.693Z,5.80
2017-10-24T15:35:04.157Z,4.57
2017-10-24T15:37:31.628Z,4.20
2017-10-24T15:39:59.101Z,4.73
2017-10-24T15:42:27.332Z,4.87
2017-10-24T15:44:54.807Z,5.70
2017-10-24T15:47:22.270Z,4.57
2017-10-24T15:49:49.739Z,4.30
2017-10-24T15:52:17.244Z,4.60
2017-10-24T15:54:44.717Z,6.47
2017-10-24T15:57:12.202Z,7.50
2017-10-24T15:59:39.685Z,6.13
2017-10-24T16:02:07.920Z,7.73
2017-10-24T16:04:35.403Z,5.60
2017-10-24T16:07:02.868Z,6.20
2017-10-24T16:09:30.340Z,6.07
2017-10-24T16:11:58.620Z,5.27
2017-10-24T16:14:26.868Z,7.57
2017-10-24T16:16:54.694Z,7.27
2017-10-24T16:19:22.185Z,6.17
2017-10-24T16:21:49.668Z,5.67
2017-10-24T16:24:17.169Z,5.67
2017-10-24T16:26:44.637Z,7.40
2017-10-24T16:29:12.116Z,7.80
2017-10-24T16:31:39.593Z,6.50
2017-10-24T16:34:07.062Z,6.63
2017-10-24T16:36:34.528Z,6.60
2017-10-24T16:39:02.803Z,5.50
2017-10-24T16:41:31.049Z,5.23
2017-10-24T16:43:58.509Z,5.37
2017-10-24T16:46:25.991Z,5.50
2017-10-24T16:48:53.461Z,4.37
2017-10-24T16:51:21.705Z,4.30
2017-10-24T16:53:49.160Z,4.23
2017-10-24T16:56:16.639Z,3.57
2017-10-24T16:58:44.102Z,3.33
2017-10-24T17:01:11.578Z,5.53
2017-10-24T17:03:39.801Z,5.37
2017-10-24T17:06:07.287Z,3.23
2017-10-24T17:08:34.752Z,3.87
2017-10-24T17:11:02.244Z,4.37
2017-10-24T17:13:29.717Z,4.40
2017-10-24T17:15:57.207Z,5.33
2017-10-24T17:18:24.679Z,6.53
2017-10-24T17:20:52.179Z,6.13
2017-10-24T17:23:19.640Z,5.17
2017-10-24T17:25:47.151Z,8.10
2017-10-24T17:28:14.614Z,5.80
2017-10-24T17:30:42.081Z,6.40
2017-10-24T17:33:09.553Z,6.20
2017-10-24T17:35:37.782Z,7.97
2017-10-24T17:38:06.040Z,6.53
2017-10-24T17:40:33.499Z,7.03
2017-10-24T17:43:01.050Z,8.57
2017-10-24T17:45:28.512Z,7.73
2017-10-24T17:47:55.999Z,8.03
2017-10-24T17:50:23.495Z,8.57
2017-10-24T17:52:51.750Z,7.00
2017-10-24T17:55:19.229Z,8.30
2017-10-24T17:57:46.692Z,6.93
2017-10-24T18:00:15.514Z,8.10
2017-10-24T18:02:43.029Z,6.80
2017-10-24T18:05:10.493Z,8.10
2017-10-24T18:07:38.737Z,7.50
2017-10-24T18:10:06.198Z,7.53
2017-10-24T18:12:33.674Z,8.37
2017-10-24T18:15:01.145Z,8.13
2017-10-24T18:17:29.384Z,9.30
2017-10-24T18:19:56.876Z,9.57
2017-10-24T18:22:24.344Z,7.83
2017-10-24T18:24:52.575Z,9.00
2017-10-24T18:27:20.053Z,10.67
2017-10-24T18:29:47.527Z,10.30
2017-10-24T18:32:15.775Z,9.77
2017-10-24T18:34:43.288Z,12.30
2017-10-24T18:37:10.748Z,9.30
2017-10-24T18:39:38.238Z,10.73
2017-10-24T18:42:05.703Z,10.73
2017-10-24T18:44:33.175Z,9.20
2017-10-24T18:47:00.648Z,11.53
2017-10-24T18:49:28.120Z,9.70
2017-10-24T18:51:56.356Z,9.13
2017-10-24T18:54:23.825Z,9.00
2017-10-24T18:56:51.297Z,8.77
2017-10-24T18:59:18.758Z,7.53
2017-10-24T19:01:46.224Z,7.63
2017-10-24T19:04:13.707Z,6.93
2017-10-24T19:06:41.175Z,6.13
2017-10-24T19:09:08.745Z,5.40
2017-10-24T19:11:36.205Z,5.90
2017-10-24T19:14:03.673Z,6.10
2017-10-24T19:16:31.148Z,6.20
2017-10-24T19:18:58.617Z,6.50
2017-10-24T19:21:26.079Z,6.80
2017-10-24T19:23:53.548Z,6.27
2017-10-24T19:26:21.023Z,6.50
2017-10-24T19:28:49.355Z,5.57
2017-10-24T19:31:16.836Z,5.97
2017-10-24T19:33:44.307Z,8.13
2017-10-24T19:36:12.551Z,8.57
2017-10-24T19:38:40.008Z,7.87
2017-10-24T19:41:07.475Z,8.07
2017-10-24T19:43:34.948Z,9.70
2017-10-24T19:46:02.419Z,9.50
2017-10-24T19:48:30.651Z,9.80
2017-10-24T19:50:58.147Z,9.80
2017-10-24T19:53:25.608Z,8.60
2017-10-24T19:55:53.856Z,8.93
2017-10-24T19:58:21.319Z,8.10
2017-10-24T20:00:49.552Z,9.40
2017-10-24T20:03:17.031Z,7.63
2017-10-24T20:05:44.536Z,6.90
2017-10-24T20:08:12.765Z,7.50
2017-10-24T20:10:40.230Z,8.20
2017-10-24T20:13:08.471Z,7.97
2017-10-24T20:15:35.963Z,7.27
2017-10-24T20:18:03.458Z,8.17
2017-10-24T20:20:31.696Z,9.33
2017-10-24T20:22:59.173Z,8.97
2017-10-24T20:25:26.635Z,9.20
2017-10-24T20:27:54.108Z,12.20
2017-10-24T20:30:21.563Z,9.10
2017-10-24T20:32:49.046Z,8.83
2017-10-24T20:35:17.295Z,8.93
2017-10-24T20:37:44.771Z,8.37
2017-10-24T20:40:13.004Z,8.03
2017-10-24T20:42:40.471Z,9.27
2017-10-24T20:45:07.931Z,7.03
2017-10-24T20:47:35.407Z,6.70
2017-10-24T20:50:02.875Z,9.40
2017-10-24T20:52:30.357Z,8.17
2017-10-24T20:54:57.830Z,10.43
2017-10-24T20:57:25.310Z,9.60
2017-10-24T20:59:52.784Z,10.43
2017-10-24T21:02:20.276Z,10.23
2017-10-24T21:04:48.513Z,9.43
2017-10-24T21:07:15.984Z,9.20
2017-10-24T21:09:43.454Z,6.63
2017-10-24T21:12:10.910Z,5.80
2017-10-24T21:14:38.384Z,6.50
2017-10-24T21:17:06.609Z,5.73
2017-10-24T21:19:34.143Z,5.17
2017-10-24T21:22:01.620Z,5.80
2017-10-24T21:24:29.101Z,4.93
2017-10-24T21:26:57.326Z,4.23
2017-10-24T21:29:24.804Z,5.67
2017-10-24T21:31:52.277Z,4.57
2017-10-24T21:34:19.753Z,4.33
2017-10-24T21:36:47.226Z,4.63
2017-10-24T21:39:14.752Z,4.40
2017-10-24T21:41:42.214Z,5.13
2017-10-24T21:44:10.165Z,7.40
2017-10-24T21:46:37.628Z,5.00
2017-10-24T21:49:05.113Z,6.10
2017-10-24T21:51:32.593Z,4.90
2017-10-24T21:54:00.074Z,8.97
2017-10-24T21:56:28.294Z,7.07
2017-10-24T21:58:55.765Z,5.60
2017-10-24T22:01:23.229Z,6.87
2017-10-24T22:03:50.819Z,6.47
2017-10-24T22:06:19.047Z,6.87
2017-10-24T22:08:46.531Z,6.90
2017-10-24T22:11:13.990Z,6.33
2017-10-24T22:13:41.457Z,7.73
2017-10-24T22:16:08.927Z,6.70
2017-10-24T22:18:37.146Z,7.13
2017-10-24T22:21:04.615Z,7.17
2017-10-24T22:23:32.092Z,7.27
2017-10-24T22:25:59.563Z,7.20
2017-10-24T22:28:27.019Z,7.10
2017-10-24T22:30:54.600Z,6.57
2017-10-24T22:33:22.888Z,6.67
2017-10-24T22:35:50.367Z,7.17
2017-10-24T22:38:17.827Z,9.17
2017-10-24T22:40:45.295Z,6.20
2017-10-24T22:43:12.775Z,8.93
2017-10-24T22:45:40.250Z,6.27
2017-10-24T22:48:07.706Z,7.87
2017-10-24T22:50:35.211Z,9.43
2017-10-24T22:53:02.679Z,9.83
2017-10-24T22:55:30.139Z,6.90
2017-10-24T22:57:57.612Z,8.10
2017-10-24T23:00:25.079Z,8.93
2017-10-24T23:02:52.551Z,7.87
2017-10-24T23:05:20.037Z,9.97
2017-10-24T23:07:48.275Z,10.00
2017-10-24T23:10:15.843Z,7.97
2017-10-24T23:12:43.317Z,7.90
2017-10-24T23:15:10.779Z,8.13
2017-10-24T23:17:38.246Z,10.70
2017-10-24T23:20:06.490Z,8.80
2017-10-24T23:22:36.887Z,7.90
2017-10-24T23:25:04.347Z,8.83
2017-10-24T23:27:31.831Z,9.10
2017-10-24T23:29:59.290Z,8.70
2017-10-24T23:32:26.769Z,8.17
2017-10-24T23:34:54.251Z,10.00
2017-10-24T23:37:22.510Z,8.27
2017-10-24T23:39:49.968Z,8.37
2017-10-24T23:42:17.444Z,8.33
2017-10-24T23:44:45.673Z,8.43
2017-10-24T23:47:13.147Z,9.30
2017-10-24T23:49:40.645Z,7.73
2017-10-24T23:52:08.183Z,7.80
2017-10-24T23:54:36.413Z,9.10
2017-10-24T23:57:03.888Z,6.77
2017-10-24T23:59:31.360Z,8.67
